Time;durP1;ratioP1;P1;durP2;ratioP2;P2;SDS_P1;SDS_P2;PMS_P1;PMS_P2;Temp;Humidity;BMP_temperature;BMP_pressure;BME280_temperature;BME280_humidity;BME280_pressure;Samples;Min_cycle;Max_cycle;Signal;HPM_P1;HPM_P2
2021/01/02 00:00:55;;;;;;;64.78;43.40;;;;;;;15.21;28.04;94690.22;5095444;28;20359;-45
2021/01/02 00:03:31;;;;;;;66.53;45.30;;;;;;;14.42;29.06;94693.63;5107111;28;20059;-48
2021/01/02 00:06:10;;;;;;;64.60;44.20;;;;;;;14.48;28.74;94699.53;5115884;28;20335;-48
2021/01/02 00:08:38;;;;;;;64.78;44.47;;;;;;;14.22;28.88;94704.63;5057725;28;20387;-47
2021/01/02 00:11:33;;;;;;;63.45;41.78;;;;;;;14.52;28.84;94711.00;5075119;28;20332;-48
2021/01/02 00:14:41;;;;;;;59.97;41.22;;;;;;;14.67;28.71;94710.63;5109198;28;20067;-46
2021/01/02 00:17:23;;;;;;;62.22;42.38;;;;;;;14.84;27.83;94717.06;5082022;28;20067;-46
2021/01/02 00:20:07;;;;;;;62.25;43.75;;;;;;;14.36;28.89;94722.97;5075083;28;20048;-48
2021/01/02 00:22:52;;;;;;;65.25;42.97;;;;;;;14.49;28.34;94728.19;5061702;28;20052;-47
2021/01/02 00:25:22;;;;;;;56.70;40.63;;;;;;;14.48;29.13;94733.75;5115017;28;20055;-49
2021/01/02 00:28:01;;;;;;;65.25;43.80;;;;;;;14.59;29.28;94737.69;5115150;28;20361;-46
2021/01/02 00:30:42;;;;;;;61.47;42.67;;;;;;;14.45;29.13;94734.34;5115196;28;20070;-47
2021/01/02 00:33:20;;;;;;;66.75;43.47;;;;;;;14.61;28.99;94732.91;5097119;28;20051;-47
2021/01/02 00:35:48;;;;;;;68.18;45.60;;;;;;;14.54;29.08;94735.16;5115167;28;20055;-48
2021/01/02 00:38:16;;;;;;;70.15;47.30;;;;;;;14.61;29.09;94734.75;5114824;28;20055;-45
2021/01/02 00:40:43;;;;;;;67.38;46.55;;;;;;;14.62;29.40;94741.56;5097064;28;20074;-46
2021/01/02 00:43:10;;;;;;;38.35;25.70;;;;;;;16.60;26.01;94736.59;5096123;28;20059;-49
2021/01/02 00:45:37;;;;;;;47.95;31.98;;;;;;;15.27;27.62;94739.03;5056826;28;20060;-50
2021/01/02 00:48:06;;;;;;;48.20;34.00;;;;;;;14.81;28.52;94734.97;5056829;28;20048;-46
2021/01/02 00:50:34;;;;;;;45.22;32.53;;;;;;;14.67;28.60;94734.31;5090439;28;20067;-45
2021/01/02 00:53:22;;;;;;;47.53;31.60;;;;;;;15.05;27.40;94733.84;5064191;28;20062;-46
2021/01/02 00:55:56;;;;;;;52.67;35.90;;;;;;;14.44;28.35;94740.69;5072896;28;20040;-46
2021/01/02 00:58:58;;;;;;;41.92;30.85;;;;;;;14.70;28.13;94733.72;5056752;28;20044;-46
2021/01/02 01:02:00;;;;;;;49.22;35.45;;;;;;;14.59;28.17;94732.44;5056569;28;20093;-47
2021/01/02 01:04:49;;;;;;;51.45;35.75;;;;;;;14.35;28.71;94737.22;5058745;28;20051;-47
2021/01/02 01:07:18;;;;;;;32.45;23.10;;;;;;;14.48;28.58;94733.75;5096154;28;20058;-50
2021/01/02 01:09:50;;;;;;;40.38;28.65;;;;;;;14.58;28.11;94733.50;5096634;28;20500;-47
2021/01/02 01:12:20;;;;;;;52.17;35.80;;;;;;;14.17;27.86;94726.56;5113261;28;20051;-44
2021/01/02 01:14:48;;;;;;;51.03;35.92;;;;;;;14.12;28.49;94728.53;5092093;28;20059;-50
2021/01/02 01:17:20;;;;;;;52.75;33.60;;;;;;;14.09;28.94;94740.44;5094226;28;20075;-44
2021/01/02 01:19:55;;;;;;;39.15;26.85;;;;;;;14.69;28.00;94742.69;5096345;28;20055;-44
2021/01/02 01:22:26;;;;;;;37.90;27.98;;;;;;;14.22;29.04;94738.03;5096105;28;20507;-46
2021/01/02 01:25:04;;;;;;;47.72;34.08;;;;;;;13.96;28.59;94746.50;5114461;28;20354;-48
2021/01/02 01:27:54;;;;;;;48.70;34.05;;;;;;;14.00;28.60;94751.94;5114437;28;20056;-47
2021/01/02 01:30:22;;;;;;;40.90;28.23;;;;;;;14.50;28.46;94750.00;5114383;28;20442;-47
2021/01/02 01:33:00;;;;;;;44.33;30.60;;;;;;;13.91;29.14;94746.63;5090999;28;20059;-46
2021/01/02 01:35:28;;;;;;;37.40;26.20;;;;;;;14.27;28.08;94743.16;5093594;28;20358;-47
2021/01/02 01:37:59;;;;;;;41.28;28.85;;;;;;;14.02;28.48;94740.06;5102402;28;20056;-48
2021/01/02 01:40:30;;;;;;;40.58;29.02;;;;;;;13.69;29.06;94746.59;5073658;28;20451;-46
2021/01/02 01:43:04;;;;;;;43.42;29.63;;;;;;;13.70;28.86;94743.66;5078826;28;20059;-48
2021/01/02 01:46:09;;;;;;;36.88;28.17;;;;;;;13.87;28.60;94746.44;5093790;28;20055;-46
2021/01/02 01:48:52;;;;;;;40.65;27.55;;;;;;;13.80;28.64;94748.72;5075939;28;20059;-46
2021/01/02 01:51:39;;;;;;;42.03;27.13;;;;;;;13.80;29.10;94758.44;5093784;28;20048;-47
2021/01/02 01:54:53;;;;;;;34.83;25.98;;;;;;;14.60;27.85;94755.03;5093481;28;20059;-49
2021/01/02 01:57:25;;;;;;;35.83;25.10;;;;;;;14.12;27.82;94755.63;5066683;28;20041;-45
2021/01/02 01:59:58;;;;;;;36.45;24.75;;;;;;;13.23;29.35;94755.41;5073592;28;20057;-47
2021/01/02 02:02:49;;;;;;;37.05;25.90;;;;;;;13.66;29.52;94752.44;5073810;28;20064;-45
2021/01/02 02:05:18;;;;;;;35.88;24.85;;;;;;;13.93;28.07;94752.38;5083449;28;20044;-47
2021/01/02 02:08:08;;;;;;;36.95;25.63;;;;;;;13.83;28.96;94761.25;5099058;28;20055;-46
2021/01/02 02:10:40;;;;;;;32.90;23.45;;;;;;;13.92;28.10;94750.03;5093642;28;20052;-47
2021/01/02 02:13:10;;;;;;;36.78;25.67;;;;;;;13.88;28.68;94761.16;5095725;28;20048;-46
2021/01/02 02:15:55;;;;;;;39.45;25.77;;;;;;;13.63;29.22;94732.03;5113944;28;20432;-45
2021/01/02 02:18:26;;;;;;;38.47;26.17;;;;;;;14.01;29.06;94749.03;5113729;28;20051;-46
2021/01/02 02:21:01;;;;;;;36.47;25.52;;;;;;;13.85;28.58;94750.44;5113886;28;20054;-46
2021/01/02 02:23:41;;;;;;;36.58;23.88;;;;;;;13.82;28.31;94749.19;5113850;28;20047;-45
2021/01/02 02:26:25;;;;;;;38.55;24.67;;;;;;;13.55;29.34;94755.28;5114157;28;20051;-46
2021/01/02 02:29:11;;;;;;;37.17;24.92;;;;;;;13.35;29.51;94752.31;5113890;28;20062;-47
2021/01/02 02:31:45;;;;;;;36.67;24.60;;;;;;;13.53;28.77;94741.69;5080309;28;20383;-45
2021/01/02 02:34:14;;;;;;;36.25;25.60;;;;;;;13.26;29.45;94744.31;5076662;28;20375;-45
2021/01/02 02:36:42;;;;;;;42.67;29.60;;;;;;;13.36;30.18;94748.59;5088408;28;20051;-45
2021/01/02 02:39:11;;;;;;;42.67;29.83;;;;;;;13.81;29.55;94752.13;5117083;28;20043;-44
2021/01/02 02:41:50;;;;;;;38.90;28.55;;;;;;;14.06;29.04;94754.19;5099302;28;20055;-52
2021/01/02 02:44:21;;;;;;;37.15;26.90;;;;;;;13.65;29.06;94745.63;5101413;28;20056;-49
2021/01/02 02:46:48;;;;;;;40.08;27.80;;;;;;;13.36;29.38;94749.38;5076368;28;20122;-46
2021/01/02 02:49:21;;;;;;;41.17;28.85;;;;;;;13.80;29.19;94747.94;5101858;28;20051;-47
2021/01/02 02:52:02;;;;;;;38.90;28.23;;;;;;;13.40;29.82;94752.97;5117174;28;20369;-47
2021/01/02 02:54:32;;;;;;;37.42;25.73;;;;;;;13.48;28.78;94749.66;5117031;28;20056;-47
2021/01/02 02:56:59;;;;;;;39.60;26.40;;;;;;;13.56;28.71;94746.34;5117135;28;20335;-46
2021/01/02 02:59:26;;;;;;;34.50;25.42;;;;;;;13.71;28.28;94744.44;5116778;28;20047;-48
2021/01/02 03:01:54;;;;;;;40.05;26.50;;;;;;;13.25;29.12;94751.41;5112593;28;20078;-50
2021/01/02 03:04:21;;;;;;;39.28;26.98;;;;;;;13.33;29.26;94755.22;5115960;28;20470;-46
2021/01/02 03:06:48;;;;;;;37.50;26.25;;;;;;;13.05;29.34;94748.41;5113658;28;20071;-47
2021/01/02 03:09:15;;;;;;;37.70;26.58;;;;;;;13.09;29.36;94754.63;5098476;28;20047;-48
2021/01/02 03:11:43;;;;;;;41.60;27.33;;;;;;;13.34;29.67;94751.53;5116863;28;20055;-46
2021/01/02 03:14:10;;;;;;;41.00;28.58;;;;;;;12.83;30.37;94754.31;5082559;28;20654;-45
2021/01/02 03:16:37;;;;;;;42.20;27.92;;;;;;;13.19;29.78;94747.34;5076366;28;20057;-46
2021/01/02 03:19:05;;;;;;;43.47;29.27;;;;;;;13.28;29.71;94755.31;5087833;28;20393;-46
2021/01/02 03:21:32;;;;;;;42.63;29.50;;;;;;;13.25;29.43;94753.25;5096097;28;20051;-47
2021/01/02 03:24:01;;;;;;;43.30;28.30;;;;;;;13.09;28.93;94759.88;5096143;28;20060;-47
2021/01/02 03:26:28;;;;;;;45.83;29.73;;;;;;;13.30;29.73;94763.69;5078266;28;20082;-46
2021/01/02 03:28:56;;;;;;;49.58;32.13;;;;;;;13.27;30.06;94772.13;5095876;28;20052;-44
2021/01/02 03:31:24;;;;;;;46.05;30.70;;;;;;;13.22;30.25;94759.09;5096036;28;20367;-46
2021/01/02 03:33:51;;;;;;;42.80;30.50;;;;;;;13.12;30.38;94769.78;5095955;28;20048;-46
2021/01/02 03:36:18;;;;;;;42.75;29.95;;;;;;;13.24;30.08;94772.72;5098382;28;21153;-47
2021/01/02 03:38:54;;;;;;;46.65;30.63;;;;;;;13.53;29.63;94761.88;5104504;28;20060;-48
2021/01/02 03:41:22;;;;;;;44.92;30.55;;;;;;;13.54;29.31;94761.63;5095421;28;20052;-48
2021/01/02 03:43:49;;;;;;;44.17;29.67;;;;;;;13.48;28.95;94768.03;5086578;28;20048;-46
2021/01/02 03:46:17;;;;;;;43.53;29.35;;;;;;;13.04;29.70;94767.84;5075612;28;20061;-46
2021/01/02 03:48:44;;;;;;;48.80;32.97;;;;;;;13.26;29.42;94771.34;5083636;28;20055;-46
2021/01/02 03:51:12;;;;;;;44.55;29.15;;;;;;;12.80;29.92;94778.50;5095614;28;20052;-49
2021/01/02 03:53:39;;;;;;;54.22;33.33;;;;;;;12.95;29.75;94775.59;5078955;28;20052;-50
2021/01/02 03:56:06;;;;;;;46.80;31.15;;;;;;;13.32;29.47;94773.91;5075294;28;20087;-45
2021/01/02 03:58:33;;;;;;;45.95;30.15;;;;;;;13.18;29.63;94779.13;5081299;28;20370;-46
2021/01/02 04:01:00;;;;;;;45.95;30.65;;;;;;;13.29;29.50;94780.50;5095588;28;20378;-46
2021/01/02 04:03:27;;;;;;;44.10;28.40;;;;;;;12.71;30.31;94780.22;5078267;28;20063;-48
2021/01/02 04:05:54;;;;;;;41.80;28.65;;;;;;;12.73;30.39;94778.09;5075466;28;20428;-47
2021/01/02 04:08:21;;;;;;;51.03;32.70;;;;;;;12.94;29.87;94785.31;5110354;28;20056;-47
2021/01/02 04:10:49;;;;;;;64.28;43.88;;;;;;;13.30;29.69;94776.03;5077576;28;20060;-46
2021/01/02 04:13:16;;;;;;;56.63;36.92;;;;;;;13.30;29.82;94782.06;5074776;28;20060;-47
2021/01/02 04:15:43;;;;;;;55.58;39.10;;;;;;;13.32;29.54;94774.69;5074643;28;20056;-46
2021/01/02 04:18:10;;;;;;;72.75;51.88;;;;;;;13.15;29.21;94782.31;5077327;28;20051;-46
2021/01/02 04:20:37;;;;;;;59.13;46.15;;;;;;;13.05;29.47;94785.16;5095055;28;20051;-45
2021/01/02 04:23:04;;;;;;;66.53;50.22;;;;;;;13.01;29.62;94789.41;5094844;28;20058;-47
2021/01/02 04:25:31;;;;;;;47.67;36.42;;;;;;;13.01;29.87;94778.91;5094836;28;20060;-46
2021/01/02 04:27:58;;;;;;;39.95;29.90;;;;;;;12.67;29.33;94785.28;5094561;28;20048;-46
2021/01/02 04:30:26;;;;;;;38.70;28.50;;;;;;;12.82;30.16;94782.41;5075990;28;20067;-47
2021/01/02 04:32:53;;;;;;;40.38;28.80;;;;;;;13.26;28.93;94786.31;5074592;28;20053;-46
2021/01/02 04:35:20;;;;;;;37.40;25.50;;;;;;;12.64;28.80;94791.09;5074309;28;20060;-48
2021/01/02 04:37:47;;;;;;;43.58;29.35;;;;;;;12.32;29.74;94790.03;5104375;28;20050;-46
2021/01/02 04:40:14;;;;;;;41.20;28.83;;;;;;;12.70;29.62;94779.44;5095598;28;20040;-46
2021/01/02 04:42:42;;;;;;;40.70;29.58;;;;;;;13.02;28.71;94790.97;5094507;28;20040;-48
2021/01/02 04:45:10;;;;;;;38.72;27.98;;;;;;;12.72;29.73;94790.44;5094444;28;20063;-46
2021/01/02 04:47:39;;;;;;;41.95;29.02;;;;;;;12.80;29.35;94799.50;5094332;28;20055;-48
2021/01/02 04:50:07;;;;;;;39.25;27.98;;;;;;;12.92;29.41;94802.41;5094237;28;20063;-50
2021/01/02 04:52:35;;;;;;;36.97;27.90;;;;;;;12.74;29.12;94805.88;5093636;28;20371;-50
2021/01/02 04:55:08;;;;;;;43.95;32.15;;;;;;;12.81;29.34;94801.06;5094384;28;20355;-45
2021/01/02 04:57:36;;;;;;;45.25;31.23;;;;;;;12.43;29.88;94805.59;5094242;28;20063;-49
2021/01/02 05:00:10;;;;;;;44.75;31.92;;;;;;;12.75;29.62;94818.72;5094187;28;20040;-46
2021/01/02 05:02:38;;;;;;;41.58;29.40;;;;;;;12.79;29.39;94821.56;5093132;28;20060;-46
2021/01/02 05:05:06;;;;;;;42.60;27.95;;;;;;;12.85;29.46;94823.00;5094382;28;20059;-47
2021/01/02 05:07:34;;;;;;;37.55;26.65;;;;;;;13.10;29.36;94827.81;5106999;28;20035;-46
2021/01/02 05:10:02;;;;;;;43.78;28.50;;;;;;;12.76;29.12;94830.00;5097668;28;20470;-44
2021/01/02 05:12:36;;;;;;;36.53;26.23;;;;;;;12.88;29.26;94832.94;5076386;28;20060;-46
2021/01/02 05:15:08;;;;;;;38.22;27.38;;;;;;;12.75;29.44;94833.66;5094174;28;20056;-46
2021/01/02 05:17:36;;;;;;;40.73;27.07;;;;;;;13.08;28.70;94837.84;5094595;28;20052;-45
2021/01/02 05:20:08;;;;;;;45.83;29.10;;;;;;;12.65;29.51;94834.63;5092804;28;20043;-46
2021/01/02 05:22:36;;;;;;;41.40;28.70;;;;;;;12.93;28.86;94828.38;5094021;28;20054;-46
2021/01/02 05:25:04;;;;;;;57.70;40.50;;;;;;;12.73;28.97;94835.78;5094139;28;20417;-46
2021/01/02 05:27:33;;;;;;;73.43;54.55;;;;;;;12.79;29.69;94840.69;5093794;28;20063;-47
2021/01/02 05:30:19;;;;;;;64.35;49.83;;;;;;;12.87;28.62;94845.28;5093576;28;20056;-46
2021/01/02 05:33:03;;;;;;;83.55;57.80;;;;;;;12.63;29.33;94847.25;5093937;28;20493;-46
2021/01/02 05:35:45;;;;;;;63.60;38.03;;;;;;;12.61;29.85;94849.38;5093647;28;20059;-46
2021/01/02 05:38:22;;;;;;;58.42;38.33;;;;;;;12.96;28.53;94851.41;5112317;28;20051;-45
2021/01/02 05:40:52;;;;;;;60.75;41.15;;;;;;;12.96;28.81;94858.50;5113807;28;20359;-47
2021/01/02 05:43:24;;;;;;;51.20;33.78;;;;;;;12.22;29.65;94850.47;5113964;28;20047;-46
2021/01/02 05:45:51;;;;;;;50.47;31.00;;;;;;;12.50;29.13;94859.25;5114002;28;20062;-46
2021/01/02 05:48:23;;;;;;;44.30;27.30;;;;;;;12.78;28.98;94852.25;5114148;28;20051;-45
2021/01/02 05:50:58;;;;;;;42.90;27.67;;;;;;;13.20;28.61;94853.13;5113751;28;20047;-46
2021/01/02 05:53:30;;;;;;;44.20;26.58;;;;;;;12.73;28.47;94862.81;5113940;28;20293;-47
2021/01/02 05:55:57;;;;;;;38.08;23.55;;;;;;;12.75;29.96;94865.94;5114280;28;20052;-47
2021/01/02 05:58:25;;;;;;;35.13;23.85;;;;;;;13.66;28.69;94865.41;5114083;28;20051;-46
2021/01/02 06:01:09;;;;;;;33.58;23.00;;;;;;;13.34;29.44;94867.06;5083184;28;20051;-48
2021/01/02 06:03:37;;;;;;;41.47;27.38;;;;;;;12.93;28.04;94862.47;5093311;28;20449;-47
2021/01/02 06:06:07;;;;;;;37.03;25.38;;;;;;;12.29;29.07;94869.25;5098447;28;20051;-47
2021/01/02 06:08:45;;;;;;;38.00;24.80;;;;;;;12.27;29.43;94871.38;5078529;28;20060;-45
2021/01/02 06:11:22;;;;;;;46.28;30.35;;;;;;;12.55;29.61;94872.28;5099060;28;20055;-49
2021/01/02 06:13:51;;;;;;;42.67;28.45;;;;;;;12.47;30.18;94872.13;5117590;28;20058;-48
2021/01/02 06:16:19;;;;;;;47.88;29.48;;;;;;;13.36;28.99;94885.94;5117794;28;20660;-48
2021/01/02 06:18:47;;;;;;;35.58;25.00;;;;;;;13.21;29.40;94878.31;5077980;28;20060;-47
2021/01/02 06:21:17;;;;;;;41.60;29.13;;;;;;;12.90;29.30;94878.81;5087910;28;20052;-46
2021/01/02 06:23:46;;;;;;;39.63;25.92;;;;;;;12.74;29.99;94882.72;5097264;28;20048;-47
2021/01/02 06:26:15;;;;;;;39.85;25.95;;;;;;;13.36;28.89;94879.91;5084872;28;20497;-47
2021/01/02 06:28:44;;;;;;;40.38;27.40;;;;;;;12.98;29.50;94886.00;5077126;28;20051;-47
2021/01/02 06:31:14;;;;;;;39.80;27.15;;;;;;;13.79;28.43;94888.25;5086790;28;20443;-46
2021/01/02 06:33:49;;;;;;;37.20;26.70;;;;;;;14.32;27.40;94898.22;5078533;28;20722;-49
2021/01/02 06:36:35;;;;;;;40.92;26.63;;;;;;;14.15;27.90;94891.75;5081401;28;20052;-47
2021/01/02 06:39:24;;;;;;;38.42;26.70;;;;;;;14.37;27.70;94898.13;5085880;28;20048;-46
2021/01/02 06:41:56;;;;;;;37.03;25.73;;;;;;;14.09;27.94;94892.91;5091781;28;20047;-46
2021/01/02 06:44:43;;;;;;;37.92;27.10;;;;;;;14.35;27.88;94900.28;5097057;28;20051;-47
2021/01/02 06:47:17;;;;;;;36.20;26.48;;;;;;;14.64;27.85;94898.06;5091435;28;20699;-46
2021/01/02 06:49:44;;;;;;;34.70;25.80;;;;;;;14.34;28.51;94903.97;5076345;28;20051;-46
2021/01/02 06:52:32;;;;;;;36.10;26.13;;;;;;;14.63;27.87;94896.50;5094260;28;20051;-47
2021/01/02 06:55:21;;;;;;;38.60;27.33;;;;;;;14.49;27.69;94907.06;5096736;28;20485;-48
2021/01/02 06:57:49;;;;;;;40.75;28.55;;;;;;;14.99;27.84;94901.69;5089382;28;20071;-48
2021/01/02 07:00:27;;;;;;;43.55;30.67;;;;;;;15.36;27.20;94891.84;5077703;28;20052;-48
2021/01/02 07:02:55;;;;;;;54.17;37.70;;;;;;;15.59;26.83;94900.47;5089118;28;20048;-45
2021/01/02 07:05:47;;;;;;;59.85;42.55;;;;;;;15.90;26.40;94905.72;5078063;28;20048;-48
2021/01/02 07:08:43;;;;;;;71.53;50.13;;;;;;;15.73;26.30;94914.34;5114317;28;20043;-47
2021/01/02 07:11:33;;;;;;;79.15;55.83;;;;;;;16.52;25.34;94905.50;5107769;28;20058;-49
2021/01/02 07:14:09;;;;;;;84.70;60.05;;;;;;;16.21;25.99;94910.91;5096318;28;20055;-50
2021/01/02 07:16:42;;;;;;;90.32;58.78;;;;;;;16.69;25.33;94913.47;5095223;28;20502;-45
2021/01/02 07:19:21;;;;;;;;;;;;;;;17.04;25.21;94914.22;5096834;28;20075;-46
2021/01/02 07:21:59;;;;;;;76.72;55.08;;;;;;;16.72;25.30;94920.00;5089995;28;19916;-46
2021/01/02 07:24:35;;;;;;;81.50;57.65;;;;;;;16.94;25.42;94917.97;5096236;28;20044;-51
2021/01/02 07:27:07;;;;;;;82.43;58.05;;;;;;;17.25;25.54;94923.03;5096230;28;20056;-48
2021/01/02 07:29:42;;;;;;;77.27;53.20;;;;;;;17.40;24.67;94923.63;5096025;28;20048;-48
2021/01/02 07:32:10;;;;;;;78.30;55.92;;;;;;;17.43;24.56;94918.47;5092690;28;20048;-47
2021/01/02 07:34:41;;;;;;;84.63;56.70;;;;;;;17.53;24.67;94917.38;5077227;28;20052;-47
2021/01/02 07:37:11;;;;;;;68.55;50.22;;;;;;;17.44;24.82;94909.47;5105350;28;20051;-50
2021/01/02 07:39:39;;;;;;;79.38;55.15;;;;;;;17.81;24.61;94912.47;5097391;28;20397;-47
2021/01/02 07:42:10;;;;;;;74.45;51.97;;;;;;;17.75;24.63;94924.31;5095550;28;20044;-47
2021/01/02 07:44:41;;;;;;;53.90;39.03;;;;;;;17.79;24.29;94920.72;5095755;28;20067;-49
2021/01/02 07:47:08;;;;;;;56.20;39.83;;;;;;;17.63;24.23;94917.00;5095670;28;20060;-51
2021/01/02 07:49:35;;;;;;;39.47;27.83;;;;;;;17.47;24.18;94914.13;5095823;28;20048;-49
2021/01/02 07:52:03;;;;;;;45.63;33.33;;;;;;;18.18;23.89;94913.50;5095304;28;20048;-49
2021/01/02 07:54:37;;;;;;;51.47;36.53;;;;;;;17.67;24.17;94917.97;5095515;28;20051;-48
2021/01/02 07:57:08;;;;;;;47.45;36.03;;;;;;;18.26;23.23;94912.72;5095594;28;20425;-48
2021/01/02 07:59:39;;;;;;;49.33;36.03;;;;;;;18.19;23.35;94912.41;5077288;28;20383;-47
2021/01/02 08:02:08;;;;;;;46.53;34.38;;;;;;;18.33;22.94;94926.19;5083237;28;20044;-50
2021/01/02 08:04:36;;;;;;;44.72;32.15;;;;;;;18.28;22.98;94929.03;5075290;28;20059;-50
2021/01/02 08:07:07;;;;;;;47.97;34.03;;;;;;;18.37;23.04;94924.47;5092829;28;20431;-50
2021/01/02 08:09:35;;;;;;;40.55;29.85;;;;;;;18.65;22.74;94924.75;5097752;28;20051;-50
2021/01/02 08:12:06;;;;;;;42.65;28.52;;;;;;;18.70;22.55;94921.13;5100192;28;20047;-47
2021/01/02 08:14:35;;;;;;;35.90;26.15;;;;;;;18.79;22.45;94919.22;5094872;28;20542;-49
2021/01/02 08:17:14;;;;;;;34.45;25.25;;;;;;;19.39;22.42;94917.88;5085883;28;20057;-49
2021/01/02 08:19:55;;;;;;;34.38;25.90;;;;;;;19.11;22.16;94925.63;5074759;28;20060;-47
2021/01/02 08:22:38;;;;;;;36.15;27.15;;;;;;;19.22;22.20;94918.03;5091049;28;20047;-51
2021/01/02 08:25:15;;;;;;;36.58;26.63;;;;;;;19.82;21.57;94906.81;5093055;28;20040;-47
2021/01/02 08:27:45;;;;;;;34.25;25.45;;;;;;;19.37;21.94;94922.72;5074455;28;20470;-49
2021/01/02 08:30:13;;;;;;;34.72;25.30;;;;;;;19.44;22.02;94916.88;5056998;28;20078;-51
2021/01/02 08:32:41;;;;;;;37.55;24.85;;;;;;;19.99;21.61;94916.41;5093195;28;20047;-51
2021/01/02 08:35:35;;;;;;;35.72;27.05;;;;;;;19.73;22.55;94905.34;5080618;28;20055;-49
2021/01/02 08:38:05;;;;;;;34.92;26.30;;;;;;;19.90;22.02;94902.50;5083320;28;20051;-52
2021/01/02 08:40:39;;;;;;;31.25;24.05;;;;;;;19.81;22.01;94899.97;5094781;28;20048;-51
2021/01/02 08:43:07;;;;;;;32.58;24.00;;;;;;;19.61;21.60;94906.91;5114999;28;20047;-48
2021/01/02 08:45:39;;;;;;;35.20;24.40;;;;;;;20.00;21.65;94910.00;5097120;28;20055;-50
2021/01/02 08:48:16;;;;;;;31.08;23.30;;;;;;;20.00;21.25;94902.81;5114949;28;20052;-46
2021/01/02 08:50:43;;;;;;;31.10;23.85;;;;;;;20.36;21.23;94897.81;5114528;28;20055;-54
2021/01/02 08:53:29;;;;;;;32.05;23.40;;;;;;;20.20;21.18;94901.16;5111204;28;20358;-46
2021/01/02 08:55:56;;;;;;;32.72;23.02;;;;;;;20.45;21.71;94895.81;5114225;28;20039;-51
2021/01/02 08:58:33;;;;;;;31.65;24.25;;;;;;;20.05;22.32;94893.88;5114933;28;20406;-49
2021/01/02 09:01:00;;;;;;;28.60;21.83;;;;;;;20.68;21.20;94891.56;5110454;28;20051;-51
2021/01/02 09:03:27;;;;;;;27.85;21.25;;;;;;;20.72;20.70;94892.44;5094168;28;20606;-47
2021/01/02 09:05:55;;;;;;;27.05;20.45;;;;;;;20.21;21.68;94897.38;5094187;28;20048;-43
2021/01/02 09:08:23;;;;;;;29.13;20.25;;;;;;;20.99;20.72;94892.78;5104820;28;20476;-51
2021/01/02 09:10:57;;;;;;;23.63;18.05;;;;;;;21.15;20.66;94891.72;5085507;28;20044;-49
2021/01/02 09:13:25;;;;;;;21.85;16.75;;;;;;;20.72;20.91;94889.78;5093621;28;20063;-51
2021/01/02 09:16:03;;;;;;;21.13;16.48;;;;;;;20.75;20.56;94889.09;5094056;28;20051;-55
2021/01/02 09:18:30;;;;;;;22.65;16.35;;;;;;;21.38;20.33;94894.63;5091341;28;20048;-48
2021/01/02 09:20:58;;;;;;;20.77;16.02;;;;;;;21.27;20.62;94887.47;5076635;28;20067;-49
2021/01/02 09:23:29;;;;;;;23.98;14.63;;;;;;;21.33;20.53;94886.88;5094086;28;20048;-44
2021/01/02 09:25:57;;;;;;;15.83;13.10;;;;;;;21.30;19.85;94898.19;5089553;28;20052;-54
2021/01/02 09:28:24;;;;;;;16.33;13.05;;;;;;;20.69;20.33;94900.31;5074152;28;20052;-45
2021/01/02 09:30:52;;;;;;;26.23;15.65;;;;;;;21.46;19.63;94890.25;5075765;28;20061;-45
2021/01/02 09:33:19;;;;;;;16.90;13.95;;;;;;;21.44;19.44;94890.59;5093855;28;20370;-46
2021/01/02 09:35:47;;;;;;;18.50;13.40;;;;;;;21.52;19.57;94888.88;5093900;28;20047;-46
2021/01/02 09:38:14;;;;;;;21.80;15.40;;;;;;;21.59;19.41;94874.97;5097309;28;20044;-50
2021/01/02 09:40:43;;;;;;;17.50;14.35;;;;;;;21.28;20.27;94868.50;5072882;28;20060;-50
2021/01/02 09:43:13;;;;;;;21.58;15.85;;;;;;;21.59;20.49;94866.97;5075756;28;20494;-56
2021/01/02 09:45:41;;;;;;;23.48;17.38;;;;;;;21.46;20.25;94864.41;5073551;28;20060;-49
2021/01/02 09:48:09;;;;;;;26.77;20.45;;;;;;;21.61;20.46;94865.53;5073791;28;20052;-51
2021/01/02 09:50:37;;;;;;;24.63;18.27;;;;;;;22.08;19.45;94865.50;5073612;28;20052;-52
2021/01/02 09:53:04;;;;;;;24.25;18.58;;;;;;;22.36;18.68;94875.22;5084904;28;20056;-54
2021/01/02 09:55:31;;;;;;;42.65;28.10;;;;;;;22.50;19.02;94861.44;5073543;28;20045;-53
2021/01/02 09:57:59;;;;;;;35.30;26.50;;;;;;;22.55;18.49;94859.28;5055891;28;20055;-52
2021/01/02 10:00:27;;;;;;;38.10;30.42;;;;;;;22.36;18.72;94853.94;5073581;28;20060;-52
2021/01/02 10:02:55;;;;;;;37.90;28.17;;;;;;;22.24;19.03;94848.72;5091079;28;20081;-60
2021/01/02 10:05:23;;;;;;;39.00;28.95;;;;;;;22.21;19.34;94842.22;5093544;28;20476;-49
2021/01/02 10:07:51;;;;;;;35.10;24.55;;;;;;;22.45;19.00;94844.63;5108939;28;20043;-51
2021/01/02 10:10:19;;;;;;;22.60;17.95;;;;;;;22.45;19.14;94839.31;5114138;28;20398;-57
2021/01/02 10:12:47;;;;;;;19.95;15.40;;;;;;;22.89;17.98;94835.59;5091059;28;20052;-50
2021/01/02 10:15:16;;;;;;;19.55;15.65;;;;;;;22.42;18.53;94833.91;5073482;28;20064;-54
2021/01/02 10:17:44;;;;;;;25.05;15.60;;;;;;;22.88;18.70;94839.38;5073260;28;20052;-51
2021/01/02 10:20:13;;;;;;;53.35;38.53;;;;;;;22.34;18.86;94832.19;5055514;28;20056;-51
2021/01/02 10:22:40;;;;;;;131.52;107.68;;;;;;;22.88;19.14;94823.38;5088080;28;20044;-53
2021/01/02 10:25:09;;;;;;;26.20;19.73;;;;;;;22.85;18.34;94822.19;5093478;28;20052;-56
2021/01/02 10:27:36;;;;;;;22.90;17.85;;;;;;;22.97;18.03;94815.97;5093704;28;20090;-47
2021/01/02 10:30:06;;;;;;;20.27;15.15;;;;;;;22.99;17.95;94819.81;5093919;28;20055;-47
2021/01/02 10:32:33;;;;;;;19.50;14.27;;;;;;;23.01;18.38;94820.22;5092900;28;20463;-50
2021/01/02 10:35:02;;;;;;;18.45;15.88;;;;;;;23.13;17.99;94808.59;5093538;28;20378;-46
2021/01/02 10:37:30;;;;;;;19.73;15.52;;;;;;;23.03;18.57;94809.97;5105773;28;20402;-49
2021/01/02 10:39:57;;;;;;;18.25;14.38;;;;;;;22.95;18.06;94808.31;5113770;28;20058;-51
2021/01/02 10:42:27;;;;;;;17.88;13.80;;;;;;;23.14;18.02;94788.81;5100438;28;20040;-56
2021/01/02 10:44:54;;;;;;;18.55;13.93;;;;;;;22.19;19.21;94809.06;5093243;28;20063;-49
2021/01/02 10:47:27;;;;;;;17.75;12.73;;;;;;;21.55;19.30;94806.50;5081216;28;20056;-52
2021/01/02 10:49:54;;;;;;;18.95;13.30;;;;;;;21.12;19.98;94794.03;5073120;28;20049;-50
2021/01/02 10:52:23;;;;;;;16.42;12.80;;;;;;;18.69;22.82;94797.78;5076962;28;20057;-52
2021/01/02 10:54:51;;;;;;;17.00;13.48;;;;;;;18.59;23.33;94788.34;5076563;28;20048;-47
2021/01/02 10:57:20;;;;;;;13.77;11.68;;;;;;;20.76;20.67;94779.06;5076563;28;20052;-52
2021/01/02 10:59:50;;;;;;;17.55;13.10;;;;;;;22.03;19.30;94779.78;5076297;28;20052;-53
2021/01/02 11:02:18;;;;;;;14.05;11.55;;;;;;;22.75;18.36;94778.22;5083314;28;20439;-51
2021/01/02 11:04:45;;;;;;;12.32;10.43;;;;;;;23.07;18.09;94765.47;5076461;28;20067;-53
2021/01/02 11:07:13;;;;;;;16.60;10.07;;;;;;;23.17;17.94;94771.34;5102967;28;20044;-64
2021/01/02 11:09:42;;;;;;;15.73;9.65;;;;;;;23.45;17.45;94761.13;5063292;28;20451;-54
2021/01/02 11:12:09;;;;;;;11.52;9.77;;;;;;;23.50;17.26;94752.06;5085400;28;20066;-47
2021/01/02 11:14:39;;;;;;;13.25;9.82;;;;;;;23.65;16.95;94753.81;5096364;28;20374;-42
2021/01/02 11:17:06;;;;;;;12.40;10.00;;;;;;;23.65;16.96;94757.25;5096464;28;20071;-40
2021/01/02 11:19:34;;;;;;;13.43;9.70;;;;;;;23.70;17.16;94745.53;5095441;28;20055;-40
2021/01/02 11:22:03;;;;;;;11.07;9.27;;;;;;;23.55;17.05;94759.75;5095296;28;20051;-40
2021/01/02 11:24:32;;;;;;;11.60;9.70;;;;;;;23.64;17.03;94741.59;5093299;28;20044;-42
2021/01/02 11:27:01;;;;;;;11.30;8.90;;;;;;;23.65;17.09;94749.25;5095942;28;20063;-41
2021/01/02 11:29:30;;;;;;;13.48;8.73;;;;;;;23.93;16.54;94748.88;5096183;28;20048;-42
2021/01/02 11:31:58;;;;;;;10.68;8.23;;;;;;;23.47;17.70;94742.09;5095695;28;20048;-40
2021/01/02 11:34:26;;;;;;;13.25;9.77;;;;;;;23.69;17.24;94741.31;5096130;28;20054;-41
2021/01/02 11:36:56;;;;;;;15.05;10.52;;;;;;;23.44;17.31;94742.81;5102495;28;20059;-40
2021/01/02 11:39:24;;;;;;;12.85;10.40;;;;;;;23.87;16.86;94731.63;5099352;28;20044;-40